sensor_id;sensor_type;location;lat;lon;timestamp;P1;durP1;ratioP1;P2;durP2;ratioP2
3627;SDS011;1830;49.000;12.074;2023-03-24T00:00:57;7.33;;;4.83;;
3627;SDS011;1830;49.000;12.074;2023-03-24T00:03:24;5.17;;;4.40;;
3627;SDS011;1830;49.000;12.074;2023-03-24T00:05:54;9.80;;;5.10;;
3627;SDS011;1830;49.000;12.074;2023-03-24T00:08:22;10.03;;;4.73;;
3627;SDS011;1830;49.000;12.074;2023-03-24T00:10:49;8.10;;;4.90;;
3627;SDS011;1830;49.000;12.074;2023-03-24T00:13:18;5.70;;;4.50;;
3627;SDS011;1830;49.000;12.074;2023-03-24T00:15:46;8.23;;;5.07;;
3627;SDS011;1830;49.000;12.074;2023-03-24T00:18:13;12.70;;;4.80;;
3627;SDS011;1830;49.000;12.074;2023-03-24T00:20:40;13.80;;;5.73;;
3627;SDS011;1830;49.000;12.074;2023-03-24T00:23:07;6.87;;;4.70;;
3627;SDS011;1830;49.000;12.074;2023-03-24T00:25:34;10.00;;;5.93;;
3627;SDS011;1830;49.000;12.074;2023-03-24T00:28:01;7.77;;;5.30;;
3627;SDS011;1830;49.000;12.074;2023-03-24T00:30:31;10.40;;;5.63;;
3627;SDS011;1830;49.000;12.074;2023-03-24T00:32:59;8.00;;;5.63;;
3627;SDS011;1830;49.000;12.074;2023-03-24T00:35:26;10.70;;;6.60;;
3627;SDS011;1830;49.000;12.074;2023-03-24T00:37:53;11.43;;;7.40;;
3627;SDS011;1830;49.000;12.074;2023-03-24T00:40:20;12.70;;;7.10;;
3627;SDS011;1830;49.000;12.074;2023-03-24T00:42:48;10.20;;;6.60;;
3627;SDS011;1830;49.000;12.074;2023-03-24T00:45:15;11.40;;;6.60;;
3627;SDS011;1830;49.000;12.074;2023-03-24T00:47:45;6.80;;;5.53;;
3627;SDS011;1830;49.000;12.074;2023-03-24T00:50:15;12.20;;;6.73;;
3627;SDS011;1830;49.000;12.074;2023-03-24T00:52:50;9.23;;;5.43;;
3627;SDS011;1830;49.000;12.074;2023-03-24T00:55:17;6.80;;;5.23;;
3627;SDS011;1830;49.000;12.074;2023-03-24T00:57:46;6.83;;;5.63;;
3627;SDS011;1830;49.000;12.074;2023-03-24T01:00:15;8.57;;;5.97;;
3627;SDS011;1830;49.000;12.074;2023-03-24T01:02:46;7.07;;;6.33;;
3627;SDS011;1830;49.000;12.074;2023-03-24T01:05:17;9.17;;;6.27;;
3627;SDS011;1830;49.000;12.074;2023-03-24T01:07:45;9.20;;;5.60;;
3627;SDS011;1830;49.000;12.074;2023-03-24T01:10:16;12.13;;;6.00;;
3627;SDS011;1830;49.000;12.074;2023-03-24T01:12:45;11.33;;;6.37;;
3627;SDS011;1830;49.000;12.074;2023-03-24T01:15:14;7.73;;;5.80;;
3627;SDS011;1830;49.000;12.074;2023-03-24T01:17:42;10.63;;;6.47;;
3627;SDS011;1830;49.000;12.074;2023-03-24T01:20:12;12.77;;;6.63;;
3627;SDS011;1830;49.000;12.074;2023-03-24T01:22:40;7.87;;;6.57;;
3627;SDS011;1830;49.000;12.074;2023-03-24T01:25:10;12.10;;;7.00;;
3627;SDS011;1830;49.000;12.074;2023-03-24T01:27:38;10.87;;;7.00;;
3627;SDS011;1830;49.000;12.074;2023-03-24T01:30:05;12.80;;;6.40;;
3627;SDS011;1830;49.000;12.074;2023-03-24T01:32:33;7.20;;;6.50;;
3627;SDS011;1830;49.000;12.074;2023-03-24T01:35:00;10.33;;;7.00;;
3627;SDS011;1830;49.000;12.074;2023-03-24T01:37:28;6.87;;;5.70;;
3627;SDS011;1830;49.000;12.074;2023-03-24T01:39:55;11.80;;;7.33;;
3627;SDS011;1830;49.000;12.074;2023-03-24T01:42:22;11.73;;;6.20;;
3627;SDS011;1830;49.000;12.074;2023-03-24T01:44:53;9.60;;;6.70;;
3627;SDS011;1830;49.000;12.074;2023-03-24T01:47:22;10.37;;;6.50;;
3627;SDS011;1830;49.000;12.074;2023-03-24T01:49:50;9.60;;;6.47;;
3627;SDS011;1830;49.000;12.074;2023-03-24T01:52:20;9.07;;;6.03;;
3627;SDS011;1830;49.000;12.074;2023-03-24T01:54:52;7.80;;;6.37;;
3627;SDS011;1830;49.000;12.074;2023-03-24T01:57:21;9.43;;;6.20;;
3627;SDS011;1830;49.000;12.074;2023-03-24T01:59:52;8.10;;;6.10;;
3627;SDS011;1830;49.000;12.074;2023-03-24T02:02:20;9.53;;;5.90;;
3627;SDS011;1830;49.000;12.074;2023-03-24T02:04:49;9.13;;;6.90;;
3627;SDS011;1830;49.000;12.074;2023-03-24T02:07:22;8.80;;;6.70;;
3627;SDS011;1830;49.000;12.074;2023-03-24T02:09:57;7.83;;;6.57;;
3627;SDS011;1830;49.000;12.074;2023-03-24T02:12:24;8.13;;;6.20;;
3627;SDS011;1830;49.000;12.074;2023-03-24T02:14:51;11.23;;;7.30;;
3627;SDS011;1830;49.000;12.074;2023-03-24T02:17:29;12.97;;;8.13;;
3627;SDS011;1830;49.000;12.074;2023-03-24T02:20:29;8.73;;;7.00;;
3627;SDS011;1830;49.000;12.074;2023-03-24T02:23:37;15.17;;;8.00;;
3627;SDS011;1830;49.000;12.074;2023-03-24T02:29:43;10.07;;;7.77;;
3627;SDS011;1830;49.000;12.074;2023-03-24T02:32:43;11.10;;;8.40;;
3627;SDS011;1830;49.000;12.074;2023-03-24T02:35:50;11.20;;;7.90;;
3627;SDS011;1830;49.000;12.074;2023-03-24T02:41:43;9.50;;;8.43;;
3627;SDS011;1830;49.000;12.074;2023-03-24T02:44:18;10.40;;;7.30;;
3627;SDS011;1830;49.000;12.074;2023-03-24T02:46:49;10.90;;;7.80;;
3627;SDS011;1830;49.000;12.074;2023-03-24T02:49:23;12.23;;;8.00;;
3627;SDS011;1830;49.000;12.074;2023-03-24T02:51:57;9.80;;;8.47;;
3627;SDS011;1830;49.000;12.074;2023-03-24T02:54:32;10.07;;;8.27;;
3627;SDS011;1830;49.000;12.074;2023-03-24T02:57:07;18.87;;;8.40;;
3627;SDS011;1830;49.000;12.074;2023-03-24T02:59:39;12.40;;;8.33;;
3627;SDS011;1830;49.000;12.074;2023-03-24T03:02:11;10.60;;;8.23;;
3627;SDS011;1830;49.000;12.074;2023-03-24T03:04:42;11.07;;;8.40;;
3627;SDS011;1830;49.000;12.074;2023-03-24T03:07:14;10.00;;;8.27;;
3627;SDS011;1830;49.000;12.074;2023-03-24T03:09:48;10.43;;;8.73;;
3627;SDS011;1830;49.000;12.074;2023-03-24T03:12:20;14.83;;;9.53;;
3627;SDS011;1830;49.000;12.074;2023-03-24T03:17:45;14.20;;;9.13;;
3627;SDS011;1830;49.000;12.074;2023-03-24T03:20:18;10.53;;;8.87;;
3627;SDS011;1830;49.000;12.074;2023-03-24T03:22:49;11.53;;;9.27;;
3627;SDS011;1830;49.000;12.074;2023-03-24T03:25:22;16.63;;;10.07;;
3627;SDS011;1830;49.000;12.074;2023-03-24T03:27:53;12.80;;;9.10;;
3627;SDS011;1830;49.000;12.074;2023-03-24T03:30:23;13.90;;;10.07;;
3627;SDS011;1830;49.000;12.074;2023-03-24T03:32:55;15.43;;;9.83;;
3627;SDS011;1830;49.000;12.074;2023-03-24T03:35:28;14.03;;;9.20;;
3627;SDS011;1830;49.000;12.074;2023-03-24T03:38:02;13.30;;;9.43;;
3627;SDS011;1830;49.000;12.074;2023-03-24T03:40:37;12.73;;;9.43;;
3627;SDS011;1830;49.000;12.074;2023-03-24T03:43:08;15.37;;;10.77;;
3627;SDS011;1830;49.000;12.074;2023-03-24T03:45:35;10.97;;;9.40;;
3627;SDS011;1830;49.000;12.074;2023-03-24T03:48:10;13.00;;;9.93;;
3627;SDS011;1830;49.000;12.074;2023-03-24T03:50:43;15.43;;;10.30;;
3627;SDS011;1830;49.000;12.074;2023-03-24T03:53:10;12.80;;;9.60;;
3627;SDS011;1830;49.000;12.074;2023-03-24T03:55:42;14.23;;;10.70;;
3627;SDS011;1830;49.000;12.074;2023-03-24T03:58:09;16.03;;;11.07;;
3627;SDS011;1830;49.000;12.074;2023-03-24T04:00:36;16.33;;;11.10;;
3627;SDS011;1830;49.000;12.074;2023-03-24T04:06:06;12.07;;;10.10;;
3627;SDS011;1830;49.000;12.074;2023-03-24T04:08:45;14.63;;;10.50;;
3627;SDS011;1830;49.000;12.074;2023-03-24T04:11:22;13.10;;;10.00;;
3627;SDS011;1830;49.000;12.074;2023-03-24T04:13:59;11.27;;;9.40;;
3627;SDS011;1830;49.000;12.074;2023-03-24T04:16:40;15.80;;;10.33;;
3627;SDS011;1830;49.000;12.074;2023-03-24T04:19:17;18.27;;;10.80;;
3627;SDS011;1830;49.000;12.074;2023-03-24T04:22:00;21.67;;;10.13;;
3627;SDS011;1830;49.000;12.074;2023-03-24T04:24:38;14.47;;;10.33;;
3627;SDS011;1830;49.000;12.074;2023-03-24T04:27:13;12.73;;;10.17;;
3627;SDS011;1830;49.000;12.074;2023-03-24T04:29:52;13.60;;;10.33;;
3627;SDS011;1830;49.000;12.074;2023-03-24T04:32:28;15.17;;;10.20;;
3627;SDS011;1830;49.000;12.074;2023-03-24T04:35:01;15.30;;;9.60;;
3627;SDS011;1830;49.000;12.074;2023-03-24T04:37:32;14.87;;;10.23;;
3627;SDS011;1830;49.000;12.074;2023-03-24T04:40:03;11.93;;;9.90;;
3627;SDS011;1830;49.000;12.074;2023-03-24T04:42:34;12.63;;;9.30;;
3627;SDS011;1830;49.000;12.074;2023-03-24T04:45:05;12.23;;;9.50;;
3627;SDS011;1830;49.000;12.074;2023-03-24T04:47:35;13.13;;;10.30;;
3627;SDS011;1830;49.000;12.074;2023-03-24T04:53:01;13.93;;;10.07;;
3627;SDS011;1830;49.000;12.074;2023-03-24T04:55:39;20.57;;;10.90;;
3627;SDS011;1830;49.000;12.074;2023-03-24T04:58:20;23.83;;;11.33;;
3627;SDS011;1830;49.000;12.074;2023-03-24T05:00:48;13.80;;;11.00;;
3627;SDS011;1830;49.000;12.074;2023-03-24T05:03:16;13.27;;;9.97;;
3627;SDS011;1830;49.000;12.074;2023-03-24T05:05:44;13.20;;;9.80;;
3627;SDS011;1830;49.000;12.074;2023-03-24T05:08:13;13.70;;;10.27;;
3627;SDS011;1830;49.000;12.074;2023-03-24T05:10:40;11.83;;;10.33;;
3627;SDS011;1830;49.000;12.074;2023-03-24T05:13:07;14.03;;;10.30;;
3627;SDS011;1830;49.000;12.074;2023-03-24T05:15:36;11.83;;;10.60;;
3627;SDS011;1830;49.000;12.074;2023-03-24T05:18:03;13.60;;;10.83;;
3627;SDS011;1830;49.000;12.074;2023-03-24T05:20:32;13.17;;;9.93;;
3627;SDS011;1830;49.000;12.074;2023-03-24T05:22:59;13.73;;;9.60;;
3627;SDS011;1830;49.000;12.074;2023-03-24T05:25:28;12.03;;;9.10;;
3627;SDS011;1830;49.000;12.074;2023-03-24T05:27:58;14.90;;;10.37;;
3627;SDS011;1830;49.000;12.074;2023-03-24T05:30:31;12.13;;;8.90;;
3627;SDS011;1830;49.000;12.074;2023-03-24T05:33:03;18.30;;;10.50;;
3627;SDS011;1830;49.000;12.074;2023-03-24T05:35:42;14.67;;;9.90;;
3627;SDS011;1830;49.000;12.074;2023-03-24T05:38:09;13.30;;;9.97;;
3627;SDS011;1830;49.000;12.074;2023-03-24T05:40:37;17.07;;;10.07;;
3627;SDS011;1830;49.000;12.074;2023-03-24T05:43:06;12.27;;;10.27;;
3627;SDS011;1830;49.000;12.074;2023-03-24T05:45:37;14.83;;;10.10;;
3627;SDS011;1830;49.000;12.074;2023-03-24T05:48:10;12.10;;;10.13;;
3627;SDS011;1830;49.000;12.074;2023-03-24T05:50:53;10.53;;;9.43;;
3627;SDS011;1830;49.000;12.074;2023-03-24T05:53:20;14.17;;;9.73;;
3627;SDS011;1830;49.000;12.074;2023-03-24T05:55:53;13.23;;;9.70;;
3627;SDS011;1830;49.000;12.074;2023-03-24T05:58:22;18.93;;;10.90;;
3627;SDS011;1830;49.000;12.074;2023-03-24T06:00:50;14.37;;;10.60;;
3627;SDS011;1830;49.000;12.074;2023-03-24T06:06:09;12.90;;;11.03;;
3627;SDS011;1830;49.000;12.074;2023-03-24T06:08:39;19.53;;;12.43;;
3627;SDS011;1830;49.000;12.074;2023-03-24T06:11:09;14.20;;;11.00;;
3627;SDS011;1830;49.000;12.074;2023-03-24T06:13:36;15.07;;;10.40;;
3627;SDS011;1830;49.000;12.074;2023-03-24T06:16:03;14.83;;;11.00;;
3627;SDS011;1830;49.000;12.074;2023-03-24T06:18:30;17.30;;;10.60;;
3627;SDS011;1830;49.000;12.074;2023-03-24T06:20:59;14.03;;;11.33;;
3627;SDS011;1830;49.000;12.074;2023-03-24T06:23:27;17.93;;;11.53;;
3627;SDS011;1830;49.000;12.074;2023-03-24T06:25:55;18.67;;;12.47;;
3627;SDS011;1830;49.000;12.074;2023-03-24T06:28:25;15.87;;;12.37;;
3627;SDS011;1830;49.000;12.074;2023-03-24T06:30:54;16.13;;;12.43;;
3627;SDS011;1830;49.000;12.074;2023-03-24T06:33:23;14.50;;;11.80;;
3627;SDS011;1830;49.000;12.074;2023-03-24T06:35:50;15.20;;;12.87;;
3627;SDS011;1830;49.000;12.074;2023-03-24T06:38:19;13.90;;;12.30;;
3627;SDS011;1830;49.000;12.074;2023-03-24T06:40:46;21.43;;;13.83;;
3627;SDS011;1830;49.000;12.074;2023-03-24T06:43:13;16.77;;;11.93;;
3627;SDS011;1830;49.000;12.074;2023-03-24T06:45:40;16.43;;;12.47;;
3627;SDS011;1830;49.000;12.074;2023-03-24T06:48:08;19.50;;;12.80;;
3627;SDS011;1830;49.000;12.074;2023-03-24T06:50:35;18.90;;;14.87;;
3627;SDS011;1830;49.000;12.074;2023-03-24T06:53:02;15.93;;;12.30;;
3627;SDS011;1830;49.000;12.074;2023-03-24T06:55:30;13.83;;;11.77;;
3627;SDS011;1830;49.000;12.074;2023-03-24T06:57:57;18.67;;;11.93;;
3627;SDS011;1830;49.000;12.074;2023-03-24T07:00:24;20.03;;;12.93;;
3627;SDS011;1830;49.000;12.074;2023-03-24T07:02:53;18.40;;;12.30;;
3627;SDS011;1830;49.000;12.074;2023-03-24T07:05:20;15.60;;;12.57;;
3627;SDS011;1830;49.000;12.074;2023-03-24T07:07:47;19.37;;;12.00;;
3627;SDS011;1830;49.000;12.074;2023-03-24T07:10:14;16.13;;;12.80;;
3627;SDS011;1830;49.000;12.074;2023-03-24T07:12:44;23.23;;;13.03;;
3627;SDS011;1830;49.000;12.074;2023-03-24T07:15:12;19.40;;;12.57;;
3627;SDS011;1830;49.000;12.074;2023-03-24T07:17:39;14.10;;;11.93;;
3627;SDS011;1830;49.000;12.074;2023-03-24T07:20:07;14.97;;;11.50;;
3627;SDS011;1830;49.000;12.074;2023-03-24T07:22:34;18.07;;;12.43;;
3627;SDS011;1830;49.000;12.074;2023-03-24T07:25:01;25.93;;;12.93;;
3627;SDS011;1830;49.000;12.074;2023-03-24T07:27:31;15.73;;;12.00;;
3627;SDS011;1830;49.000;12.074;2023-03-24T07:30:00;17.40;;;12.10;;
3627;SDS011;1830;49.000;12.074;2023-03-24T07:32:28;14.90;;;12.37;;
3627;SDS011;1830;49.000;12.074;2023-03-24T07:34:59;15.60;;;12.10;;
3627;SDS011;1830;49.000;12.074;2023-03-24T07:37:26;17.93;;;12.70;;
3627;SDS011;1830;49.000;12.074;2023-03-24T07:39:53;16.00;;;12.20;;
3627;SDS011;1830;49.000;12.074;2023-03-24T07:42:20;16.53;;;13.20;;
3627;SDS011;1830;49.000;12.074;2023-03-24T07:44:46;17.70;;;13.90;;
3627;SDS011;1830;49.000;12.074;2023-03-24T07:47:15;22.33;;;13.70;;
3627;SDS011;1830;49.000;12.074;2023-03-24T07:49:42;21.87;;;13.70;;
3627;SDS011;1830;49.000;12.074;2023-03-24T07:52:10;14.00;;;12.43;;
3627;SDS011;1830;49.000;12.074;2023-03-24T07:54:37;17.03;;;12.40;;
3627;SDS011;1830;49.000;12.074;2023-03-24T07:57:04;15.50;;;13.27;;
3627;SDS011;1830;49.000;12.074;2023-03-24T07:59:31;18.10;;;13.20;;
3627;SDS011;1830;49.000;12.074;2023-03-24T08:01:58;16.23;;;13.50;;
3627;SDS011;1830;49.000;12.074;2023-03-24T08:04:26;18.27;;;14.43;;
3627;SDS011;1830;49.000;12.074;2023-03-24T08:06:53;19.57;;;14.27;;
3627;SDS011;1830;49.000;12.074;2023-03-24T08:09:22;19.60;;;14.87;;
3627;SDS011;1830;49.000;12.074;2023-03-24T08:11:49;18.77;;;13.40;;
3627;SDS011;1830;49.000;12.074;2023-03-24T08:14:16;18.03;;;12.73;;
3627;SDS011;1830;49.000;12.074;2023-03-24T08:16:43;17.23;;;13.63;;
3627;SDS011;1830;49.000;12.074;2023-03-24T08:19:10;19.50;;;13.90;;
3627;SDS011;1830;49.000;12.074;2023-03-24T08:21:38;15.93;;;13.67;;
3627;SDS011;1830;49.000;12.074;2023-03-24T08:24:06;19.60;;;14.80;;
3627;SDS011;1830;49.000;12.074;2023-03-24T08:26:33;20.37;;;14.60;;
3627;SDS011;1830;49.000;12.074;2023-03-24T08:29:02;16.70;;;13.80;;
3627;SDS011;1830;49.000;12.074;2023-03-24T08:31:32;15.50;;;13.77;;
3627;SDS011;1830;49.000;12.074;2023-03-24T08:34:00;18.33;;;14.30;;
3627;SDS011;1830;49.000;12.074;2023-03-24T08:36:27;21.50;;;14.47;;
3627;SDS011;1830;49.000;12.074;2023-03-24T08:38:55;16.40;;;14.13;;
3627;SDS011;1830;49.000;12.074;2023-03-24T08:41:22;20.60;;;15.73;;
3627;SDS011;1830;49.000;12.074;2023-03-24T08:43:54;16.63;;;13.60;;
3627;SDS011;1830;49.000;12.074;2023-03-24T08:46:21;22.43;;;15.00;;
3627;SDS011;1830;49.000;12.074;2023-03-24T08:48:48;20.50;;;15.57;;
3627;SDS011;1830;49.000;12.074;2023-03-24T08:51:16;16.67;;;14.00;;
3627;SDS011;1830;49.000;12.074;2023-03-24T08:53:43;21.40;;;14.93;;
3627;SDS011;1830;49.000;12.074;2023-03-24T08:56:11;21.33;;;15.47;;
3627;SDS011;1830;49.000;12.074;2023-03-24T08:58:38;21.30;;;15.00;;
3627;SDS011;1830;49.000;12.074;2023-03-24T09:01:05;21.97;;;14.50;;
3627;SDS011;1830;49.000;12.074;2023-03-24T09:03:32;20.60;;;15.53;;
3627;SDS011;1830;49.000;12.074;2023-03-24T09:06:00;20.80;;;15.50;;
3627;SDS011;1830;49.000;12.074;2023-03-24T09:08:26;29.23;;;16.37;;
3627;SDS011;1830;49.000;12.074;2023-03-24T09:10:53;20.43;;;15.40;;
3627;SDS011;1830;49.000;12.074;2023-03-24T09:13:21;23.70;;;16.43;;
3627;SDS011;1830;49.000;12.074;2023-03-24T09:15:49;20.40;;;16.50;;
3627;SDS011;1830;49.000;12.074;2023-03-24T09:18:17;21.70;;;14.23;;
3627;SDS011;1830;49.000;12.074;2023-03-24T09:20:45;18.33;;;13.27;;
3627;SDS011;1830;49.000;12.074;2023-03-24T09:23:12;15.77;;;10.70;;
3627;SDS011;1830;49.000;12.074;2023-03-24T09:25:39;11.70;;;10.37;;
3627;SDS011;1830;49.000;12.074;2023-03-24T09:28:07;14.43;;;9.70;;
3627;SDS011;1830;49.000;12.074;2023-03-24T09:30:35;15.50;;;9.93;;
3627;SDS011;1830;49.000;12.074;2023-03-24T09:33:02;16.87;;;9.10;;
3627;SDS011;1830;49.000;12.074;2023-03-24T09:35:28;17.33;;;9.67;;
3627;SDS011;1830;49.000;12.074;2023-03-24T09:37:55;15.23;;;9.20;;
3627;SDS011;1830;49.000;12.074;2023-03-24T09:40:23;14.40;;;9.33;;
3627;SDS011;1830;49.000;12.074;2023-03-24T09:42:52;20.20;;;10.77;;
3627;SDS011;1830;49.000;12.074;2023-03-24T09:45:25;13.77;;;9.30;;
3627;SDS011;1830;49.000;12.074;2023-03-24T09:47:56;14.53;;;9.97;;
3627;SDS011;1830;49.000;12.074;2023-03-24T09:50:26;13.47;;;10.07;;
3627;SDS011;1830;49.000;12.074;2023-03-24T09:52:58;16.40;;;9.57;;
3627;SDS011;1830;49.000;12.074;2023-03-24T09:55:31;16.60;;;9.77;;
3627;SDS011;1830;49.000;12.074;2023-03-24T09:58:03;15.07;;;10.63;;
3627;SDS011;1830;49.000;12.074;2023-03-24T10:00:32;14.20;;;10.20;;
3627;SDS011;1830;49.000;12.074;2023-03-24T10:03:03;14.30;;;10.03;;
3627;SDS011;1830;49.000;12.074;2023-03-24T10:05:40;17.50;;;10.40;;
3627;SDS011;1830;49.000;12.074;2023-03-24T10:08:11;16.93;;;9.83;;
3627;SDS011;1830;49.000;12.074;2023-03-24T10:10:45;20.13;;;9.97;;
3627;SDS011;1830;49.000;12.074;2023-03-24T10:13:21;10.47;;;8.80;;
3627;SDS011;1830;49.000;12.074;2023-03-24T10:15:54;15.17;;;9.40;;
3627;SDS011;1830;49.000;12.074;2023-03-24T10:18:33;13.97;;;9.60;;
3627;SDS011;1830;49.000;12.074;2023-03-24T10:21:06;10.53;;;8.70;;
3627;SDS011;1830;49.000;12.074;2023-03-24T10:23:43;10.73;;;7.93;;
3627;SDS011;1830;49.000;12.074;2023-03-24T10:26:21;12.37;;;8.23;;
3627;SDS011;1830;49.000;12.074;2023-03-24T10:29:02;11.37;;;8.30;;
3627;SDS011;1830;49.000;12.074;2023-03-24T10:31:40;14.60;;;8.50;;
3627;SDS011;1830;49.000;12.074;2023-03-24T10:34:12;9.73;;;8.27;;
3627;SDS011;1830;49.000;12.074;2023-03-24T10:36:39;9.80;;;7.87;;
3627;SDS011;1830;49.000;12.074;2023-03-24T10:39:08;11.37;;;8.20;;
3627;SDS011;1830;49.000;12.074;2023-03-24T10:41:39;13.30;;;7.97;;
3627;SDS011;1830;49.000;12.074;2023-03-24T10:44:07;10.13;;;7.33;;
3627;SDS011;1830;49.000;12.074;2023-03-24T10:46:36;11.30;;;7.50;;
3627;SDS011;1830;49.000;12.074;2023-03-24T10:49:15;9.93;;;6.73;;
3627;SDS011;1830;49.000;12.074;2023-03-24T10:51:44;10.37;;;7.10;;
3627;SDS011;1830;49.000;12.074;2023-03-24T10:54:14;12.27;;;6.87;;
3627;SDS011;1830;49.000;12.074;2023-03-24T10:56:43;7.13;;;6.10;;
3627;SDS011;1830;49.000;12.074;2023-03-24T10:59:16;10.40;;;6.47;;
3627;SDS011;1830;49.000;12.074;2023-03-24T11:01:46;10.83;;;7.70;;
3627;SDS011;1830;49.000;12.074;2023-03-24T11:04:16;12.40;;;8.03;;
3627;SDS011;1830;49.000;12.074;2023-03-24T11:09:29;9.10;;;6.10;;
3627;SDS011;1830;49.000;12.074;2023-03-24T11:12:04;6.80;;;5.80;;
3627;SDS011;1830;49.000;12.074;2023-03-24T11:14:46;6.73;;;5.40;;
3627;SDS011;1830;49.000;12.074;2023-03-24T11:17:13;7.80;;;6.70;;
3627;SDS011;1830;49.000;12.074;2023-03-24T11:19:50;12.63;;;7.97;;
3627;SDS011;1830;49.000;12.074;2023-03-24T11:22:18;8.87;;;7.10;;
3627;SDS011;1830;49.000;12.074;2023-03-24T11:24:46;9.40;;;7.93;;
3627;SDS011;1830;49.000;12.074;2023-03-24T11:27:16;10.03;;;7.80;;
3627;SDS011;1830;49.000;12.074;2023-03-24T11:29:44;14.33;;;9.63;;
3627;SDS011;1830;49.000;12.074;2023-03-24T11:32:17;10.87;;;9.87;;
3627;SDS011;1830;49.000;12.074;2023-03-24T11:34:52;12.10;;;9.90;;
3627;SDS011;1830;49.000;12.074;2023-03-24T11:37:27;16.97;;;8.80;;
3627;SDS011;1830;49.000;12.074;2023-03-24T11:40:14;12.20;;;9.00;;
3627;SDS011;1830;49.000;12.074;2023-03-24T11:42:43;10.60;;;9.50;;
3627;SDS011;1830;49.000;12.074;2023-03-24T11:45:22;12.60;;;9.20;;
3627;SDS011;1830;49.000;12.074;2023-03-24T11:47:53;9.13;;;8.20;;
3627;SDS011;1830;49.000;12.074;2023-03-24T11:50:24;8.10;;;7.27;;
3627;SDS011;1830;49.000;12.074;2023-03-24T11:52:55;9.67;;;7.70;;
3627;SDS011;1830;49.000;12.074;2023-03-24T11:55:28;14.20;;;8.50;;
3627;SDS011;1830;49.000;12.074;2023-03-24T11:58:01;10.80;;;8.30;;
3627;SDS011;1830;49.000;12.074;2023-03-24T12:00:32;7.43;;;6.60;;
3627;SDS011;1830;49.000;12.074;2023-03-24T12:03:09;8.43;;;6.43;;
3627;SDS011;1830;49.000;12.074;2023-03-24T12:05:57;15.57;;;7.00;;
3627;SDS011;1830;49.000;12.074;2023-03-24T12:08:35;6.73;;;6.10;;
3627;SDS011;1830;49.000;12.074;2023-03-24T12:11:13;7.67;;;5.37;;
3627;SDS011;1830;49.000;12.074;2023-03-24T12:13:45;7.57;;;6.60;;
3627;SDS011;1830;49.000;12.074;2023-03-24T12:16:17;7.67;;;5.40;;
3627;SDS011;1830;49.000;12.074;2023-03-24T12:19:13;7.53;;;5.90;;
3627;SDS011;1830;49.000;12.074;2023-03-24T12:22:01;6.60;;;5.50;;
3627;SDS011;1830;49.000;12.074;2023-03-24T12:24:41;9.50;;;5.20;;
3627;SDS011;1830;49.000;12.074;2023-03-24T12:27:22;8.50;;;5.53;;
3627;SDS011;1830;49.000;12.074;2023-03-24T12:29:58;6.50;;;5.23;;
3627;SDS011;1830;49.000;12.074;2023-03-24T12:32:34;5.77;;;4.93;;
3627;SDS011;1830;49.000;12.074;2023-03-24T12:35:20;6.17;;;5.10;;
3627;SDS011;1830;49.000;12.074;2023-03-24T12:38:18;6.10;;;4.63;;
3627;SDS011;1830;49.000;12.074;2023-03-24T12:40:56;5.37;;;4.80;;
3627;SDS011;1830;49.000;12.074;2023-03-24T12:43:36;4.83;;;4.33;;
3627;SDS011;1830;49.000;12.074;2023-03-24T12:46:21;5.50;;;4.57;;
3627;SDS011;1830;49.000;12.074;2023-03-24T12:49:08;4.70;;;4.20;;
3627;SDS011;1830;49.000;12.074;2023-03-24T12:51:46;6.70;;;4.63;;
3627;SDS011;1830;49.000;12.074;2023-03-24T12:54:28;5.77;;;4.20;;
3627;SDS011;1830;49.000;12.074;2023-03-24T12:57:02;5.23;;;4.00;;
3627;SDS011;1830;49.000;12.074;2023-03-24T12:59:32;6.03;;;4.13;;
3627;SDS011;1830;49.000;12.074;2023-03-24T13:02:08;5.10;;;4.60;;
3627;SDS011;1830;49.000;12.074;2023-03-24T13:04:45;5.33;;;4.50;;
3627;SDS011;1830;49.000;12.074;2023-03-24T13:07:15;5.93;;;4.50;;
3627;SDS011;1830;49.000;12.074;2023-03-24T13:09:45;4.93;;;4.37;;
3627;SDS011;1830;49.000;12.074;2023-03-24T13:12:18;6.63;;;5.00;;
3627;SDS011;1830;49.000;12.074;2023-03-24T13:14:48;5.97;;;4.57;;
3627;SDS011;1830;49.000;12.074;2023-03-24T13:17:20;4.67;;;4.00;;
3627;SDS011;1830;49.000;12.074;2023-03-24T13:19:51;5.57;;;4.33;;
3627;SDS011;1830;49.000;12.074;2023-03-24T13:22:20;5.70;;;4.57;;
3627;SDS011;1830;49.000;12.074;2023-03-24T13:24:51;5.63;;;4.93;;
3627;SDS011;1830;49.000;12.074;2023-03-24T13:27:20;7.23;;;4.67;;
3627;SDS011;1830;49.000;12.074;2023-03-24T13:29:53;5.57;;;4.97;;
3627;SDS011;1830;49.000;12.074;2023-03-24T13:32:45;7.63;;;4.40;;
3627;SDS011;1830;49.000;12.074;2023-03-24T13:35:17;6.03;;;4.50;;
3627;SDS011;1830;49.000;12.074;2023-03-24T13:37:58;6.90;;;4.83;;
3627;SDS011;1830;49.000;12.074;2023-03-24T13:40:36;8.40;;;4.97;;
3627;SDS011;1830;49.000;12.074;2023-03-24T13:43:06;6.43;;;4.50;;
3627;SDS011;1830;49.000;12.074;2023-03-24T13:45:38;8.27;;;4.80;;
3627;SDS011;1830;49.000;12.074;2023-03-24T13:48:17;4.80;;;4.37;;
3627;SDS011;1830;49.000;12.074;2023-03-24T13:50:53;6.40;;;4.17;;
3627;SDS011;1830;49.000;12.074;2023-03-24T13:53:35;3.20;;;2.90;;
3627;SDS011;1830;49.000;12.074;2023-03-24T13:56:06;3.83;;;3.10;;
3627;SDS011;1830;49.000;12.074;2023-03-24T13:59:05;2.97;;;2.67;;
3627;SDS011;1830;49.000;12.074;2023-03-24T14:02:07;5.10;;;2.87;;
3627;SDS011;1830;49.000;12.074;2023-03-24T14:04:45;3.80;;;2.73;;
3627;SDS011;1830;49.000;12.074;2023-03-24T14:07:28;3.20;;;2.30;;
3627;SDS011;1830;49.000;12.074;2023-03-24T14:09:58;3.40;;;2.40;;
3627;SDS011;1830;49.000;12.074;2023-03-24T14:12:27;5.20;;;2.60;;
3627;SDS011;1830;49.000;12.074;2023-03-24T14:15:13;3.40;;;2.73;;
3627;SDS011;1830;49.000;12.074;2023-03-24T14:17:43;2.60;;;2.40;;
3627;SDS011;1830;49.000;12.074;2023-03-24T14:20:23;2.50;;;2.30;;
3627;SDS011;1830;49.000;12.074;2023-03-24T14:22:57;2.37;;;2.17;;
3627;SDS011;1830;49.000;12.074;2023-03-24T14:25:25;4.33;;;3.00;;
3627;SDS011;1830;49.000;12.074;2023-03-24T14:28:03;3.70;;;2.57;;
3627;SDS011;1830;49.000;12.074;2023-03-24T14:30:53;4.13;;;3.33;;
3627;SDS011;1830;49.000;12.074;2023-03-24T14:33:27;6.03;;;2.70;;
3627;SDS011;1830;49.000;12.074;2023-03-24T14:35:56;4.43;;;2.83;;
3627;SDS011;1830;49.000;12.074;2023-03-24T14:38:28;4.63;;;2.60;;
3627;SDS011;1830;49.000;12.074;2023-03-24T14:41:04;3.40;;;3.00;;
3627;SDS011;1830;49.000;12.074;2023-03-24T14:49:16;2.97;;;2.67;;
3627;SDS011;1830;49.000;12.074;2023-03-24T14:51:49;3.17;;;2.63;;
3627;SDS011;1830;49.000;12.074;2023-03-24T14:54:28;5.10;;;2.03;;
3627;SDS011;1830;49.000;12.074;2023-03-24T14:57:00;2.20;;;2.00;;
3627;SDS011;1830;49.000;12.074;2023-03-24T14:59:35;2.90;;;2.30;;
3627;SDS011;1830;49.000;12.074;2023-03-24T15:02:12;4.13;;;2.50;;
3627;SDS011;1830;49.000;12.074;2023-03-24T15:10:43;5.80;;;2.77;;
3627;SDS011;1830;49.000;12.074;2023-03-24T15:13:30;5.80;;;2.80;;
3627;SDS011;1830;49.000;12.074;2023-03-24T15:16:02;5.23;;;2.90;;
3627;SDS011;1830;49.000;12.074;2023-03-24T15:18:31;1.80;;;1.70;;
3627;SDS011;1830;49.000;12.074;2023-03-24T15:20:58;3.40;;;2.47;;
3627;SDS011;1830;49.000;12.074;2023-03-24T15:23:25;5.47;;;4.37;;
3627;SDS011;1830;49.000;12.074;2023-03-24T15:25:53;6.47;;;4.07;;
3627;SDS011;1830;49.000;12.074;2023-03-24T15:28:21;7.20;;;6.00;;
3627;SDS011;1830;49.000;12.074;2023-03-24T15:30:53;3.57;;;2.80;;
3627;SDS011;1830;49.000;12.074;2023-03-24T15:33:24;3.50;;;2.47;;
3627;SDS011;1830;49.000;12.074;2023-03-24T15:35:55;2.43;;;2.23;;
3627;SDS011;1830;49.000;12.074;2023-03-24T15:38:26;2.70;;;2.27;;
3627;SDS011;1830;49.000;12.074;2023-03-24T15:40:55;2.20;;;2.00;;
3627;SDS011;1830;49.000;12.074;2023-03-24T15:43:25;2.27;;;1.93;;
3627;SDS011;1830;49.000;12.074;2023-03-24T15:45:52;3.90;;;1.70;;
3627;SDS011;1830;49.000;12.074;2023-03-24T15:48:21;5.50;;;3.30;;